createdAt,value
2023-05-12T00:01:08.818Z,3.30
2023-05-12T00:04:11.187Z,3.47
2023-05-12T00:07:13.919Z,3.78
2023-05-12T00:10:16.361Z,3.72
2023-05-12T00:13:24.258Z,4.10
2023-05-12T00:16:27.852Z,3.90
2023-05-12T00:19:31.324Z,3.70
2023-05-12T00:22:33.594Z,4.40
2023-05-12T00:25:37.829Z,4.30
2023-05-12T00:28:40.333Z,3.80
2023-05-12T00:31:42.855Z,3.85
2023-05-12T00:34:45.203Z,3.65
2023-05-12T00:37:47.565Z,3.00
2023-05-12T00:40:49.894Z,2.92
2023-05-12T00:43:52.536Z,2.40
2023-05-12T00:46:55.759Z,2.90
2023-05-12T00:49:59.093Z,2.55
2023-05-12T00:53:01.550Z,2.90
2023-05-12T00:56:04.738Z,2.90
2023-05-12T00:59:07.609Z,2.65
2023-05-12T01:05:14.956Z,2.30
2023-05-12T01:08:18.107Z,2.40
2023-05-12T01:11:21.990Z,2.85
2023-05-12T01:14:24.554Z,2.20
2023-05-12T01:17:33.582Z,2.17
2023-05-12T01:20:36.514Z,2.20
2023-05-12T01:23:45.255Z,3.35
2023-05-12T01:26:48.107Z,2.60
2023-05-12T01:29:52.259Z,2.75
2023-05-12T01:32:55.841Z,2.90
2023-05-12T01:35:58.091Z,3.42
2023-05-12T01:39:01.273Z,3.70
2023-05-12T01:42:05.710Z,4.00
2023-05-12T01:45:09.830Z,3.15
2023-05-12T01:48:12.053Z,3.00
2023-05-12T01:51:17.696Z,3.40
2023-05-12T01:54:20.935Z,2.83
2023-05-12T01:57:24.361Z,3.40
2023-05-12T02:00:30.128Z,3.15
2023-05-12T02:03:34.667Z,3.75
2023-05-12T02:06:37.052Z,3.70
2023-05-12T02:09:39.737Z,3.85
2023-05-12T02:12:42.117Z,4.22
2023-05-12T02:15:45.906Z,4.75
2023-05-12T02:18:49.019Z,3.63
2023-05-12T02:21:51.649Z,4.18
2023-05-12T02:24:53.862Z,3.45
2023-05-12T02:27:57.158Z,3.67
2023-05-12T02:30:59.684Z,3.38
2023-05-12T02:34:06.684Z,2.80
2023-05-12T02:37:09.394Z,2.70
2023-05-12T02:40:12.597Z,2.58
2023-05-12T02:43:15.947Z,2.83
2023-05-12T02:46:18.811Z,2.85
2023-05-12T02:49:21.230Z,2.72
2023-05-12T02:52:24.249Z,3.60
2023-05-12T02:55:26.722Z,3.15
2023-05-12T02:58:29.329Z,3.67
2023-05-12T03:01:31.568Z,4.22
2023-05-12T03:04:33.999Z,4.57
2023-05-12T03:07:36.585Z,4.22
2023-05-12T03:10:39.313Z,4.72
2023-05-12T03:13:41.733Z,4.97
2023-05-12T03:16:44.213Z,5.25
2023-05-12T03:19:47.166Z,4.65
2023-05-12T03:22:52.502Z,5.72
2023-05-12T03:25:55.596Z,5.15
2023-05-12T03:28:57.966Z,5.22
2023-05-12T03:32:00.229Z,5.57
2023-05-12T03:35:03.491Z,5.10
2023-05-12T03:38:06.154Z,5.43
2023-05-12T03:41:08.753Z,4.72
2023-05-12T03:44:12.436Z,5.28
2023-05-12T03:47:14.995Z,4.45
2023-05-12T03:50:18.080Z,6.45
2023-05-12T03:53:21.151Z,6.90
2023-05-12T03:56:23.177Z,7.95
2023-05-12T03:59:27.378Z,8.38
2023-05-12T04:02:29.650Z,6.45
2023-05-12T04:05:32.301Z,7.55
2023-05-12T04:08:35.262Z,5.30
2023-05-12T04:11:38.623Z,8.27
2023-05-12T04:14:43.259Z,8.98
2023-05-12T04:17:46.289Z,6.35
2023-05-12T04:20:48.726Z,4.32
2023-05-12T04:23:53.311Z,7.75
2023-05-12T04:26:58.171Z,8.82
2023-05-12T04:33:10.836Z,10.60
2023-05-12T04:36:14.438Z,7.63
2023-05-12T04:39:16.933Z,6.95
2023-05-12T04:42:20.715Z,8.90
2023-05-12T04:45:23.355Z,9.70
2023-05-12T04:48:29.435Z,11.23
2023-05-12T04:51:32.811Z,14.75
2023-05-12T04:54:35.984Z,10.68
2023-05-12T04:57:41.567Z,8.27
2023-05-12T05:00:46.409Z,13.23
2023-05-12T05:03:48.893Z,7.38
2023-05-12T05:06:52.165Z,11.02
2023-05-12T05:09:55.069Z,13.57
2023-05-12T05:12:57.793Z,10.27
2023-05-12T05:16:00.819Z,10.38
2023-05-12T05:19:06.454Z,7.05
2023-05-12T05:22:13.095Z,8.13
2023-05-12T05:25:15.957Z,8.18
2023-05-12T05:28:18.136Z,9.85
2023-05-12T05:31:22.356Z,9.15
2023-05-12T05:34:25.697Z,9.47
2023-05-12T05:37:29.013Z,11.13
2023-05-12T05:40:41.594Z,9.85
2023-05-12T05:43:52.081Z,10.38
2023-05-12T05:46:55.141Z,11.30
2023-05-12T05:50:00.319Z,10.30
2023-05-12T05:53:02.532Z,10.52
2023-05-12T05:56:06.448Z,9.35
2023-05-12T05:59:09.960Z,9.10
2023-05-12T06:02:13.435Z,7.03
2023-05-12T06:05:16.293Z,9.48
2023-05-12T06:08:19.601Z,9.18
2023-05-12T06:11:23.573Z,9.60
2023-05-12T06:14:26.124Z,11.07
2023-05-12T06:17:32.685Z,9.25
2023-05-12T06:20:36.150Z,9.10
2023-05-12T06:23:38.163Z,11.82
2023-05-12T06:26:40.882Z,10.30
2023-05-12T06:29:43.026Z,7.25
2023-05-12T06:32:46.118Z,7.18
2023-05-12T06:35:53.618Z,11.15
2023-05-12T06:38:56.947Z,9.27
2023-05-12T06:41:59.101Z,12.65
2023-05-12T06:45:01.714Z,13.23
2023-05-12T06:48:06.332Z,11.00
2023-05-12T06:51:09.591Z,10.63
2023-05-12T06:54:11.835Z,11.52
2023-05-12T06:57:14.323Z,9.50
2023-05-12T07:00:18.005Z,8.75
2023-05-12T07:03:20.797Z,11.80
2023-05-12T07:06:23.681Z,11.77
2023-05-12T07:09:26.713Z,12.10
2023-05-12T07:12:29.711Z,12.13
2023-05-12T07:15:34.548Z,11.80
2023-05-12T07:18:37.250Z,10.52
2023-05-12T07:21:40.049Z,10.43
2023-05-12T07:24:42.197Z,12.13
2023-05-12T07:27:44.743Z,12.07
2023-05-12T07:30:47.369Z,9.45
2023-05-12T07:33:49.988Z,11.07
2023-05-12T07:36:52.128Z,9.98
2023-05-12T07:39:55.538Z,12.98
2023-05-12T07:42:58.084Z,11.25
2023-05-12T07:46:01.652Z,12.75
2023-05-12T07:49:04.450Z,10.88
2023-05-12T07:52:07.346Z,12.18
2023-05-12T07:55:10.451Z,12.30
2023-05-12T07:58:13.252Z,10.23
2023-05-12T08:01:15.429Z,9.75
2023-05-12T08:04:17.957Z,11.00
2023-05-12T08:07:20.132Z,11.63
2023-05-12T08:10:29.971Z,9.45
2023-05-12T08:13:34.258Z,9.70
2023-05-12T08:16:37.701Z,10.85
2023-05-12T08:19:41.917Z,10.15
2023-05-12T08:25:48.684Z,11.15
2023-05-12T08:28:51.653Z,11.65
2023-05-12T08:31:53.965Z,11.23
2023-05-12T08:34:56.482Z,11.10
2023-05-12T08:37:59.742Z,11.68
2023-05-12T08:41:13.676Z,13.23
2023-05-12T08:44:18.139Z,10.10
2023-05-12T08:50:24.177Z,13.55
2023-05-12T08:53:29.244Z,9.60
2023-05-12T08:59:46.204Z,13.70
2023-05-12T09:02:54.026Z,11.45
2023-05-12T09:06:00.168Z,12.55
2023-05-12T09:09:04.212Z,14.02
2023-05-12T09:12:12.747Z,13.88
2023-05-12T09:15:26.891Z,11.20
2023-05-12T09:18:46.336Z,12.73
2023-05-12T09:21:49.098Z,11.68
2023-05-12T09:24:51.653Z,13.13
2023-05-12T09:27:58.510Z,13.00
2023-05-12T09:31:01.624Z,14.23
2023-05-12T09:34:10.565Z,10.68
2023-05-12T09:37:15.534Z,15.50
2023-05-12T09:40:18.175Z,14.37
2023-05-12T09:43:21.356Z,13.25
2023-05-12T09:46:27.327Z,14.05
2023-05-12T09:49:29.913Z,13.38
2023-05-12T09:52:37.338Z,12.07
2023-05-12T09:55:40.442Z,10.30
2023-05-12T09:58:47.751Z,13.52
2023-05-12T10:01:50.839Z,11.45
2023-05-12T10:05:01.211Z,14.32
2023-05-12T10:08:06.300Z,11.35
2023-05-12T10:11:10.383Z,10.30
2023-05-12T10:17:20.225Z,14.23
2023-05-12T10:20:24.428Z,11.13
2023-05-12T10:23:29.061Z,12.95
2023-05-12T10:26:35.471Z,13.63
2023-05-12T10:29:39.481Z,11.07
2023-05-12T10:35:48.642Z,9.70
2023-05-12T10:38:53.868Z,14.13
2023-05-12T10:42:10.059Z,14.70
2023-05-12T10:45:18.497Z,11.82
2023-05-12T10:48:21.378Z,13.70
2023-05-12T10:51:33.551Z,12.07
2023-05-12T10:54:44.850Z,13.95
2023-05-12T10:57:52.591Z,15.45
2023-05-12T11:00:55.794Z,13.65
2023-05-12T11:04:10.396Z,13.50
2023-05-12T11:07:15.671Z,14.75
2023-05-12T11:10:19.891Z,12.45
2023-05-12T11:13:22.510Z,14.35
2023-05-12T11:16:25.707Z,14.82
2023-05-12T11:19:28.678Z,12.43
2023-05-12T11:22:31.574Z,14.63
2023-05-12T11:25:36.201Z,12.60
2023-05-12T11:28:42.463Z,11.57
2023-05-12T11:31:51.275Z,15.57
2023-05-12T11:34:53.945Z,13.20
2023-05-12T11:37:56.135Z,13.20
2023-05-12T11:40:58.804Z,12.05
2023-05-12T11:44:17.252Z,11.95
2023-05-12T11:47:21.012Z,12.98
2023-05-12T11:50:25.048Z,10.23
2023-05-12T11:56:29.980Z,9.68
2023-05-12T11:59:35.313Z,11.05
2023-05-12T12:02:40.187Z,12.35
2023-05-12T12:05:45.802Z,9.13
2023-05-12T12:08:58.619Z,9.25
2023-05-12T12:12:02.586Z,8.68
2023-05-12T12:15:06.535Z,11.15
2023-05-12T12:18:09.374Z,9.55
2023-05-12T12:21:11.995Z,8.50
2023-05-12T12:24:14.527Z,9.18
2023-05-12T12:27:16.783Z,8.48
2023-05-12T12:30:19.659Z,7.70
2023-05-12T12:33:22.019Z,8.13
2023-05-12T12:36:25.209Z,8.35
2023-05-12T12:39:27.342Z,7.70
2023-05-12T12:42:30.780Z,9.10
2023-05-12T12:45:33.493Z,8.73
2023-05-12T12:48:37.256Z,7.10
2023-05-12T12:51:46.255Z,5.78
2023-05-12T12:54:49.649Z,6.80
2023-05-12T12:57:51.852Z,6.03
2023-05-12T13:00:54.515Z,6.60
2023-05-12T13:03:56.893Z,5.82
2023-05-12T13:06:59.879Z,5.65
2023-05-12T13:10:03.500Z,7.22
2023-05-12T13:13:06.460Z,7.13
2023-05-12T13:16:09.356Z,6.25
2023-05-12T13:19:12.537Z,6.53
2023-05-12T13:22:15.107Z,6.63
2023-05-12T13:25:17.918Z,4.85
2023-05-12T13:28:21.857Z,4.82
2023-05-12T13:31:24.424Z,3.83
2023-05-12T13:34:31.569Z,3.40
2023-05-12T13:37:34.454Z,4.40
2023-05-12T13:40:37.729Z,2.88
2023-05-12T13:43:40.714Z,2.75
2023-05-12T13:46:43.080Z,2.55
2023-05-12T13:49:45.789Z,2.35
2023-05-12T13:52:47.854Z,2.50
2023-05-12T13:55:50.917Z,4.25
2023-05-12T13:58:54.706Z,3.42
2023-05-12T14:01:58.638Z,5.28
2023-05-12T14:05:01.385Z,5.60
2023-05-12T14:08:04.480Z,6.47
2023-05-12T14:11:07.246Z,6.22
2023-05-12T14:14:11.096Z,6.78
2023-05-12T14:17:13.855Z,7.47
2023-05-12T14:20:17.243Z,5.85
2023-05-12T14:23:22.424Z,5.13
2023-05-12T14:26:26.640Z,6.20
2023-05-12T14:29:29.054Z,7.20
2023-05-12T14:32:32.050Z,7.72
2023-05-12T14:35:39.276Z,7.35
2023-05-12T14:38:46.608Z,7.32
2023-05-12T14:41:49.518Z,8.13
2023-05-12T14:44:53.918Z,10.02
2023-05-12T14:47:57.266Z,9.07
2023-05-12T14:51:28.644Z,11.13
2023-05-12T14:55:01.612Z,10.70
2023-05-12T14:58:15.782Z,13.18
2023-05-12T15:01:34.584Z,13.02
2023-05-12T15:04:39.818Z,11.55
2023-05-12T15:07:43.774Z,13.13
2023-05-12T15:11:16.802Z,12.65
2023-05-12T15:14:20.957Z,12.82
2023-05-12T15:17:31.090Z,9.93
2023-05-12T15:20:35.183Z,11.20
2023-05-12T15:23:42.700Z,9.60
2023-05-12T15:26:47.943Z,7.82
2023-05-12T15:30:19.457Z,9.65
2023-05-12T15:33:47.389Z,9.60
2023-05-12T15:36:51.545Z,8.32
2023-05-12T15:41:05.766Z,9.07
2023-05-12T15:49:04.853Z,7.90
2023-05-12T15:52:58.192Z,8.00
2023-05-12T15:56:04.185Z,8.73
2023-05-12T15:59:07.931Z,8.43
2023-05-12T16:02:35.534Z,7.70
2023-05-12T16:05:38.924Z,8.27
2023-05-12T16:08:42.862Z,7.60
2023-05-12T16:11:45.561Z,9.07
2023-05-12T16:14:51.406Z,7.70
2023-05-12T16:17:53.785Z,7.85
2023-05-12T16:20:57.068Z,8.57
2023-05-12T16:24:04.247Z,8.15
2023-05-12T16:27:07.595Z,8.57
2023-05-12T16:30:11.196Z,7.70
2023-05-12T16:33:13.796Z,9.05
2023-05-12T16:36:17.660Z,8.65
2023-05-12T16:39:20.641Z,9.65
2023-05-12T16:42:23.068Z,10.65
2023-05-12T16:45:25.791Z,10.85
2023-05-12T16:48:33.864Z,12.02
2023-05-12T16:51:39.275Z,12.68
2023-05-12T16:54:42.748Z,13.33
2023-05-12T16:57:45.912Z,13.57
2023-05-12T17:00:48.619Z,14.23
2023-05-12T17:03:52.176Z,13.98
2023-05-12T17:07:46.176Z,13.82
2023-05-12T17:21:18.590Z,15.18
2023-05-12T17:24:21.646Z,14.98
2023-05-12T17:27:25.248Z,14.37
2023-05-12T17:30:28.719Z,14.15
2023-05-12T17:33:32.993Z,14.30
2023-05-12T17:36:35.161Z,13.13
2023-05-12T17:39:40.775Z,13.43
2023-05-12T17:42:44.474Z,12.63
2023-05-12T17:45:47.945Z,12.88
2023-05-12T17:48:50.459Z,11.65
2023-05-12T17:51:56.353Z,10.25
2023-05-12T17:54:58.631Z,9.75
2023-05-12T17:58:00.976Z,9.27
2023-05-12T18:01:03.915Z,9.57
2023-05-12T18:04:06.725Z,9.07
2023-05-12T18:07:09.773Z,9.20
2023-05-12T18:10:12.865Z,9.25
2023-05-12T18:13:15.759Z,8.75
2023-05-12T18:16:27.914Z,8.20
2023-05-12T18:19:31.720Z,8.43
2023-05-12T18:22:34.496Z,8.77
2023-05-12T18:26:08.762Z,8.18
2023-05-12T18:29:12.099Z,8.13
2023-05-12T18:32:14.416Z,7.57
2023-05-12T18:35:46.635Z,7.22
2023-05-12T18:38:49.003Z,8.75
2023-05-12T18:41:51.797Z,7.80
2023-05-12T18:44:57.661Z,7.38
2023-05-12T18:48:00.445Z,6.20
2023-05-12T18:51:03.812Z,6.35
2023-05-12T18:54:06.526Z,7.00
2023-05-12T18:57:09.075Z,6.38
2023-05-12T19:00:14.646Z,6.65
2023-05-12T19:04:40.103Z,7.30
2023-05-12T19:07:46.195Z,6.70
2023-05-12T19:10:48.581Z,6.53
2023-05-12T19:13:52.661Z,6.07
2023-05-12T19:16:55.147Z,6.83
2023-05-12T19:19:58.143Z,6.95
2023-05-12T19:23:00.375Z,5.95
2023-05-12T19:26:02.968Z,6.13
2023-05-12T19:29:05.096Z,5.78
2023-05-12T19:32:08.124Z,5.80
2023-05-12T19:35:11.885Z,6.85
2023-05-12T19:38:14.828Z,6.70
2023-05-12T19:41:16.968Z,6.70
2023-05-12T19:44:19.671Z,6.93
2023-05-12T19:47:26.224Z,8.10
2023-05-12T19:50:29.258Z,7.72
2023-05-12T19:53:31.591Z,7.68
2023-05-12T19:56:36.501Z,7.57
2023-05-12T20:02:42.767Z,8.80
2023-05-12T20:05:47.877Z,9.00
2023-05-12T20:08:52.729Z,8.60
2023-05-12T20:11:57.335Z,9.82
2023-05-12T20:15:00.355Z,10.10
2023-05-12T20:18:03.242Z,9.82
2023-05-12T20:21:06.888Z,9.32
2023-05-12T20:24:09.474Z,10.30
2023-05-12T20:27:12.457Z,11.10
2023-05-12T20:30:15.368Z,11.65
2023-05-12T20:33:18.762Z,11.68
2023-05-12T20:36:22.108Z,11.98
2023-05-12T20:39:25.218Z,12.88
2023-05-12T20:42:28.363Z,11.70
2023-05-12T20:45:31.847Z,11.87
2023-05-12T20:48:35.312Z,13.60
2023-05-12T20:51:38.498Z,10.73
2023-05-12T20:54:40.723Z,12.43
2023-05-12T20:57:43.364Z,13.43
2023-05-12T21:00:45.781Z,13.98
2023-05-12T21:03:49.878Z,13.43
2023-05-12T21:06:53.518Z,14.15
2023-05-12T21:13:02.471Z,13.27
2023-05-12T21:16:05.461Z,13.32
2023-05-12T21:19:08.911Z,13.10
2023-05-12T21:22:13.841Z,12.02
2023-05-12T21:25:16.511Z,12.93
2023-05-12T21:28:19.935Z,13.27
2023-05-12T21:31:22.817Z,13.02
2023-05-12T21:34:25.846Z,13.27
2023-05-12T21:37:28.751Z,11.98
2023-05-12T21:40:31.696Z,11.90
2023-05-12T21:43:34.314Z,12.60
2023-05-12T21:46:37.787Z,12.57
2023-05-12T21:49:40.550Z,12.27
2023-05-12T21:52:43.907Z,12.05
2023-05-12T21:55:46.393Z,10.75
2023-05-12T21:58:50.891Z,8.82
2023-05-12T22:01:54.011Z,10.63
2023-05-12T22:04:57.457Z,10.48
2023-05-12T22:08:01.293Z,9.00
2023-05-12T22:11:04.979Z,9.68
2023-05-12T22:14:11.067Z,9.43
2023-05-12T22:17:14.334Z,8.23
2023-05-12T22:20:17.609Z,7.57
2023-05-12T22:23:20.124Z,8.20
2023-05-12T22:26:23.171Z,7.35
2023-05-12T22:29:26.232Z,5.13
2023-05-12T22:32:28.497Z,4.05
2023-05-12T22:35:31.082Z,3.55
2023-05-12T22:38:33.408Z,3.55
2023-05-12T22:41:36.570Z,4.10
2023-05-12T22:44:38.730Z,4.63
2023-05-12T22:47:41.166Z,4.78
2023-05-12T22:50:43.638Z,4.07
2023-05-12T22:53:46.219Z,4.70
2023-05-12T22:56:48.953Z,4.60
2023-05-12T22:59:51.574Z,4.43
2023-05-12T23:02:53.969Z,4.13
2023-05-12T23:05:57.919Z,4.68
2023-05-12T23:09:00.151Z,4.32
2023-05-12T23:12:04.092Z,4.40
2023-05-12T23:15:07.921Z,4.55
2023-05-12T23:18:10.485Z,4.97
2023-05-12T23:21:13.228Z,4.88
2023-05-12T23:24:15.836Z,4.70
2023-05-12T23:27:17.974Z,4.47
2023-05-12T23:30:21.614Z,4.35
2023-05-12T23:33:25.662Z,4.22
2023-05-12T23:36:28.174Z,4.13
2023-05-12T23:39:30.190Z,3.95
2023-05-12T23:42:32.905Z,4.07
2023-05-12T23:45:36.046Z,4.47
2023-05-12T23:48:39.142Z,4.50
2023-05-12T23:51:42.423Z,4.00
2023-05-12T23:54:45.244Z,4.57
2023-05-12T23:57:47.834Z,5.18
